createdAt,value
2018-09-21T00:00:40.580Z,15.64
2018-09-21T00:03:14.967Z,15.74
2018-09-21T00:05:49.644Z,15.70
2018-09-21T00:08:24.076Z,15.58
2018-09-21T00:10:58.733Z,15.57
2018-09-21T00:13:33.202Z,15.56
2018-09-21T00:16:07.661Z,15.53
2018-09-21T00:18:42.336Z,15.48
2018-09-21T00:21:17.228Z,15.42
2018-09-21T00:23:51.960Z,15.42
2018-09-21T00:26:26.448Z,15.44
2018-09-21T00:29:00.805Z,15.51
2018-09-21T00:31:35.499Z,15.49
2018-09-21T00:34:09.917Z,15.48
2018-09-21T00:36:44.180Z,15.52
2018-09-21T00:39:18.569Z,15.39
2018-09-21T00:41:53.618Z,15.33
2018-09-21T00:44:28.286Z,15.33
2018-09-21T00:47:03.252Z,15.28
2018-09-21T00:49:37.796Z,15.17
2018-09-21T00:52:12.475Z,15.09
2018-09-21T00:54:46.924Z,15.11
2018-09-21T00:57:21.820Z,15.12
2018-09-21T00:59:56.288Z,15.11
2018-09-21T01:02:30.739Z,15.16
2018-09-21T01:05:05.280Z,15.13
2018-09-21T01:07:40.000Z,15.10
2018-09-21T01:10:14.365Z,15.06
2018-09-21T01:12:49.163Z,15.01
2018-09-21T01:15:23.507Z,15.01
2018-09-21T01:17:57.963Z,14.99
2018-09-21T01:20:32.371Z,15.07
2018-09-21T01:23:06.797Z,15.03
2018-09-21T01:25:41.196Z,14.94
2018-09-21T01:28:15.500Z,14.91
2018-09-21T01:30:50.861Z,14.87
2018-09-21T01:33:25.164Z,14.86
2018-09-21T01:35:59.603Z,14.86
2018-09-21T01:38:33.930Z,14.77
2018-09-21T01:41:08.624Z,14.73
2018-09-21T01:43:42.957Z,14.70
2018-09-21T01:46:17.727Z,14.69
2018-09-21T01:48:52.132Z,14.66
2018-09-21T01:51:26.740Z,14.67
2018-09-21T01:54:01.212Z,14.65
2018-09-21T01:56:35.495Z,14.68
2018-09-21T01:59:09.982Z,14.64
2018-09-21T02:01:44.400Z,14.57
2018-09-21T02:04:19.035Z,14.52
2018-09-21T02:06:53.707Z,14.49
2018-09-21T02:09:27.985Z,14.42
2018-09-21T02:12:03.088Z,14.41
2018-09-21T02:14:37.421Z,14.44
2018-09-21T02:17:11.839Z,14.39
2018-09-21T02:19:46.670Z,14.35
2018-09-21T02:22:21.247Z,14.31
2018-09-21T02:24:55.776Z,14.30
2018-09-21T02:27:30.285Z,14.26
2018-09-21T02:30:05.371Z,14.23
2018-09-21T02:32:39.717Z,14.21
2018-09-21T02:35:14.483Z,14.16
2018-09-21T02:37:48.788Z,14.10
2018-09-21T02:40:23.709Z,14.03
2018-09-21T02:42:58.485Z,14.01
2018-09-21T02:45:32.888Z,13.96
2018-09-21T02:48:07.296Z,13.90
2018-09-21T02:50:42.924Z,13.87
2018-09-21T02:53:17.654Z,13.84
2018-09-21T02:55:51.935Z,13.81
2018-09-21T02:58:26.366Z,13.81
2018-09-21T03:01:00.810Z,13.76
2018-09-21T03:03:35.436Z,13.73
2018-09-21T03:06:10.328Z,13.66
2018-09-21T03:08:45.002Z,13.67
2018-09-21T03:11:19.888Z,13.61
2018-09-21T03:13:54.284Z,13.65
2018-09-21T03:16:29.136Z,13.63
2018-09-21T03:19:03.528Z,13.59
2018-09-21T03:21:38.917Z,13.57
2018-09-21T03:24:13.380Z,13.53
2018-09-21T03:26:47.920Z,13.53
2018-09-21T03:29:22.590Z,13.52
2018-09-21T03:31:57.668Z,13.57
2018-09-21T03:34:32.437Z,13.58
2018-09-21T03:37:07.197Z,13.58
2018-09-21T03:39:41.843Z,13.54
2018-09-21T03:42:16.474Z,13.50
2018-09-21T03:44:50.840Z,13.48
2018-09-21T03:47:25.312Z,13.48
2018-09-21T03:49:59.779Z,13.51
2018-09-21T03:52:35.387Z,13.52
2018-09-21T03:55:10.108Z,13.51
2018-09-21T03:57:44.676Z,13.50
2018-09-21T04:00:22.347Z,13.52
2018-09-21T04:02:57.535Z,13.52
2018-09-21T04:05:32.175Z,13.52
2018-09-21T04:08:07.528Z,13.54
2018-09-21T04:10:41.819Z,13.55
2018-09-21T04:13:16.400Z,13.61
2018-09-21T04:15:50.807Z,13.60
2018-09-21T04:18:25.623Z,13.76
2018-09-21T04:21:00.259Z,13.72
2018-09-21T04:23:34.734Z,13.64
2018-09-21T04:26:09.656Z,13.65
2018-09-21T04:28:44.436Z,13.63
2018-09-21T04:31:18.780Z,13.55
2018-09-21T04:33:53.260Z,13.52
2018-09-21T04:36:29.937Z,13.49
2018-09-21T04:39:07.956Z,13.48
2018-09-21T04:41:42.423Z,13.48
2018-09-21T04:44:16.693Z,13.55
2018-09-21T04:46:53.430Z,13.52
2018-09-21T04:49:27.865Z,13.54
2018-09-21T04:52:04.288Z,13.54
2018-09-21T04:54:39.412Z,13.56
2018-09-21T04:57:14.880Z,13.53
2018-09-21T04:59:49.589Z,13.49
2018-09-21T05:02:24.011Z,13.50
2018-09-21T05:04:58.388Z,13.51
2018-09-21T05:07:33.124Z,13.52
2018-09-21T05:10:08.288Z,13.50
2018-09-21T05:12:42.970Z,13.56
2018-09-21T05:15:23.584Z,13.58
2018-09-21T05:17:58.544Z,13.58
2018-09-21T05:20:32.984Z,13.53
2018-09-21T05:23:07.323Z,13.58
2018-09-21T05:25:41.787Z,13.60
2018-09-21T05:28:16.300Z,13.63
2018-09-21T05:30:51.515Z,13.67
2018-09-21T05:33:25.835Z,13.73
2018-09-21T05:36:00.600Z,13.76
2018-09-21T05:38:34.844Z,13.79
2018-09-21T05:41:09.787Z,13.82
2018-09-21T05:43:44.357Z,13.89
2018-09-21T05:46:18.774Z,13.96
2018-09-21T05:48:53.267Z,14.04
2018-09-21T05:51:27.730Z,14.12
2018-09-21T05:54:13.966Z,14.17
2018-09-21T05:56:49.264Z,14.26
2018-09-21T05:59:24.409Z,14.37
2018-09-21T06:01:59.356Z,14.45
2018-09-21T06:04:34.309Z,14.49
2018-09-21T06:07:09.184Z,14.55
2018-09-21T06:09:43.843Z,14.68
2018-09-21T06:12:18.863Z,14.80
2018-09-21T06:14:53.336Z,15.00
2018-09-21T06:17:28.047Z,15.09
2018-09-21T06:20:11.977Z,15.13
2018-09-21T06:22:45.035Z,15.21
2018-09-21T06:25:12.916Z,15.30
2018-09-21T06:27:47.389Z,15.42
2018-09-21T06:30:22.146Z,15.48
2018-09-21T06:32:57.576Z,15.57
2018-09-21T06:35:33.343Z,15.74
2018-09-21T06:38:07.740Z,15.78
2018-09-21T06:40:42.185Z,15.91
2018-09-21T06:43:17.008Z,16.02
2018-09-21T06:45:51.547Z,16.17
2018-09-21T06:48:26.773Z,16.24
2018-09-21T06:51:01.825Z,16.35
2018-09-21T06:53:36.253Z,16.52
2018-09-21T06:56:10.705Z,16.67
2018-09-21T06:58:45.568Z,16.77
2018-09-21T07:01:20.108Z,16.90
2018-09-21T07:03:55.359Z,17.00
2018-09-21T07:06:29.737Z,17.17
2018-09-21T07:09:05.655Z,17.29
2018-09-21T07:11:40.680Z,17.45
2018-09-21T07:14:15.260Z,17.59
2018-09-21T07:16:49.932Z,17.64
2018-09-21T07:19:24.440Z,17.83
2018-09-21T07:21:59.529Z,18.05
2018-09-21T07:24:34.243Z,18.48
2018-09-21T07:27:08.988Z,18.73
2018-09-21T07:29:43.639Z,18.89
2018-09-21T07:32:18.340Z,19.08
2018-09-21T07:34:52.879Z,19.28
2018-09-21T07:37:27.648Z,19.44
2018-09-21T07:40:03.233Z,19.65
2018-09-21T07:42:37.904Z,19.97
2018-09-21T07:45:12.392Z,20.26
2018-09-21T07:47:47.113Z,20.50
2018-09-21T07:50:21.657Z,20.76
2018-09-21T07:52:56.696Z,20.96
2018-09-21T07:55:31.630Z,21.06
2018-09-21T07:58:05.969Z,21.38
2018-09-21T08:00:40.434Z,21.63
2018-09-21T08:03:14.752Z,21.86
2018-09-21T08:05:49.208Z,22.05
2018-09-21T08:08:24.108Z,22.24
2018-09-21T08:10:58.468Z,22.38
2018-09-21T08:13:33.115Z,22.53
2018-09-21T08:16:08.171Z,22.59
2018-09-21T08:18:42.618Z,22.64
2018-09-21T08:21:17.372Z,22.75
2018-09-21T08:23:52.020Z,22.83
2018-09-21T08:26:26.390Z,23.12
2018-09-21T08:29:01.012Z,23.24
2018-09-21T08:31:35.708Z,23.29
2018-09-21T08:34:10.276Z,23.41
2018-09-21T08:36:44.570Z,23.55
2018-09-21T08:39:19.038Z,23.68
2018-09-21T08:41:53.463Z,23.71
2018-09-21T08:44:28.280Z,23.97
2018-09-21T08:47:02.992Z,24.15
2018-09-21T08:49:37.594Z,24.33
2018-09-21T08:52:12.103Z,24.51
2018-09-21T08:54:46.716Z,24.86
2018-09-21T08:57:21.848Z,24.92
2018-09-21T08:59:56.328Z,24.97
2018-09-21T09:02:31.153Z,25.08
2018-09-21T09:05:06.387Z,24.99
2018-09-21T09:07:40.852Z,25.14
2018-09-21T09:10:15.423Z,25.27
2018-09-21T09:12:50.012Z,25.32
2018-09-21T09:15:24.484Z,25.38
2018-09-21T09:17:59.117Z,25.50
2018-09-21T09:20:33.600Z,25.47
2018-09-21T09:23:08.860Z,25.49
2018-09-21T09:25:43.806Z,25.57
2018-09-21T09:28:18.731Z,25.61
2018-09-21T09:30:53.457Z,25.75
2018-09-21T09:33:27.788Z,25.96
2018-09-21T09:36:02.288Z,26.14
2018-09-21T09:38:36.760Z,26.20
2018-09-21T09:41:11.244Z,26.23
2018-09-21T09:43:46.371Z,26.27
2018-09-21T09:46:20.643Z,26.48
2018-09-21T09:48:55.162Z,26.74
2018-09-21T09:51:30.095Z,26.95
2018-09-21T09:54:04.728Z,27.15
2018-09-21T09:56:39.590Z,27.13
2018-09-21T09:59:14.655Z,27.24
2018-09-21T10:01:49.213Z,27.35
2018-09-21T10:04:23.779Z,27.45
2018-09-21T10:06:58.151Z,27.26
2018-09-21T10:09:32.644Z,27.43
2018-09-21T10:12:07.448Z,27.59
2018-09-21T10:14:41.905Z,27.75
2018-09-21T10:17:16.484Z,27.72
2018-09-21T10:19:51.016Z,27.77
2018-09-21T10:22:25.433Z,27.89
2018-09-21T10:24:59.885Z,28.06
2018-09-21T10:27:34.820Z,28.16
2018-09-21T10:30:09.282Z,28.30
2018-09-21T10:32:43.740Z,28.37
2018-09-21T10:35:18.042Z,28.24
2018-09-21T10:37:52.697Z,28.18
2018-09-21T10:40:27.117Z,28.24
2018-09-21T10:43:02.305Z,28.41
2018-09-21T10:45:37.560Z,28.49
2018-09-21T10:48:12.452Z,28.70
2018-09-21T10:50:47.171Z,28.90
2018-09-21T10:53:22.004Z,28.92
2018-09-21T10:55:56.867Z,28.96
2018-09-21T10:58:31.270Z,28.98
2018-09-21T11:01:06.294Z,28.72
2018-09-21T11:03:40.907Z,28.54
2018-09-21T11:06:15.896Z,28.30
2018-09-21T11:08:50.285Z,27.98
2018-09-21T11:11:24.674Z,27.99
2018-09-21T11:13:59.279Z,28.11
2018-09-21T11:16:33.886Z,27.76
2018-09-21T11:19:08.860Z,27.61
2018-09-21T11:21:43.295Z,27.35
2018-09-21T11:24:17.907Z,26.95
2018-09-21T11:26:52.531Z,26.93
2018-09-21T11:29:27.071Z,27.01
2018-09-21T11:32:01.464Z,27.33
2018-09-21T11:34:36.091Z,27.96
2018-09-21T11:37:10.676Z,28.12
2018-09-21T11:39:46.102Z,28.06
2018-09-21T11:42:21.576Z,28.24
2018-09-21T11:44:55.894Z,28.44
2018-09-21T11:47:30.569Z,28.70
2018-09-21T11:50:05.333Z,28.68
2018-09-21T11:52:39.847Z,28.79
2018-09-21T11:55:14.364Z,28.81
2018-09-21T11:57:48.969Z,28.86
2018-09-21T12:00:24.188Z,28.76
2018-09-21T12:02:59.056Z,29.03
2018-09-21T12:05:33.696Z,29.31
2018-09-21T12:08:08.515Z,29.36
2018-09-21T12:10:43.021Z,29.37
2018-09-21T12:13:17.567Z,29.26
2018-09-21T12:15:52.429Z,29.52
2018-09-21T12:18:27.072Z,29.76
2018-09-21T12:21:01.500Z,29.73
2018-09-21T12:23:35.992Z,29.83
2018-09-21T12:26:10.368Z,30.02
2018-09-21T12:28:45.044Z,29.94
2018-09-21T12:31:19.559Z,29.72
2018-09-21T12:33:54.236Z,29.48
2018-09-21T12:36:28.899Z,29.56
2018-09-21T12:39:04.984Z,29.46
2018-09-21T12:41:39.719Z,29.23
2018-09-21T12:44:15.546Z,28.98
2018-09-21T12:46:49.885Z,29.21
2018-09-21T12:49:24.334Z,29.30
2018-09-21T12:51:58.792Z,29.25
2018-09-21T12:54:33.501Z,29.21
2018-09-21T12:57:08.016Z,29.13
2018-09-21T12:59:42.721Z,28.97
2018-09-21T13:02:17.201Z,28.94
2018-09-21T13:04:51.503Z,28.95
2018-09-21T13:07:26.067Z,29.06
2018-09-21T13:10:00.392Z,28.97
2018-09-21T13:12:34.863Z,29.13
2018-09-21T13:15:09.515Z,29.26
2018-09-21T13:17:43.775Z,29.39
2018-09-21T13:20:18.468Z,29.55
2018-09-21T13:22:52.949Z,29.57
2018-09-21T13:25:27.309Z,29.61
2018-09-21T13:28:02.024Z,29.80
2018-09-21T13:30:36.653Z,29.82
2018-09-21T13:33:11.098Z,29.62
2018-09-21T13:35:45.916Z,29.36
2018-09-21T13:38:20.565Z,28.98
2018-09-21T13:40:55.916Z,28.73
2018-09-21T13:43:30.427Z,28.82
2018-09-21T13:46:05.845Z,28.89
2018-09-21T13:48:40.751Z,28.76
2018-09-21T13:51:15.420Z,28.27
2018-09-21T13:53:50.012Z,27.75
2018-09-21T13:56:24.515Z,27.39
2018-09-21T13:58:58.779Z,27.30
2018-09-21T14:01:33.469Z,27.77
2018-09-21T14:04:08.492Z,27.92
2018-09-21T14:06:42.868Z,27.86
2018-09-21T14:09:17.506Z,27.64
2018-09-21T14:11:52.014Z,27.49
2018-09-21T14:14:26.584Z,27.53
2018-09-21T14:17:01.062Z,27.50
2018-09-21T14:19:35.488Z,27.50
2018-09-21T14:22:10.005Z,27.50
2018-09-21T14:24:44.415Z,27.48
2018-09-21T14:27:18.836Z,27.29
2018-09-21T14:29:53.571Z,27.14
2018-09-21T14:32:28.124Z,27.05
2018-09-21T14:35:02.583Z,27.10
2018-09-21T14:37:37.395Z,27.05
2018-09-21T14:40:11.689Z,26.97
2018-09-21T14:42:46.233Z,26.88
2018-09-21T14:45:20.611Z,26.89
2018-09-21T14:47:55.240Z,26.84
2018-09-21T14:50:30.331Z,26.77
2018-09-21T14:53:05.358Z,26.71
2018-09-21T14:55:39.729Z,26.65
2018-09-21T14:58:14.229Z,26.57
2018-09-21T15:00:49.143Z,26.62
2018-09-21T15:03:26.594Z,26.72
2018-09-21T15:06:01.264Z,26.58
2018-09-21T15:08:35.786Z,26.52
2018-09-21T15:11:10.708Z,26.58
2018-09-21T15:13:45.353Z,26.53
2018-09-21T15:16:20.794Z,26.50
2018-09-21T15:18:55.463Z,26.37
2018-09-21T15:21:30.391Z,26.29
2018-09-21T15:24:04.941Z,26.24
2018-09-21T15:26:39.816Z,26.24
2018-09-21T15:29:14.939Z,26.11
2018-09-21T15:31:49.648Z,26.00
2018-09-21T15:34:24.644Z,25.94
2018-09-21T15:36:59.403Z,25.78
2018-09-21T15:39:33.757Z,25.68
2018-09-21T15:42:08.696Z,25.53
2018-09-21T15:44:43.387Z,25.56
2018-09-21T15:47:18.143Z,25.50
2018-09-21T15:49:52.597Z,25.39
2018-09-21T15:52:27.426Z,25.34
2018-09-21T15:55:01.786Z,25.37
2018-09-21T15:57:36.097Z,25.27
2018-09-21T16:00:10.748Z,25.30
2018-09-21T16:02:45.250Z,25.24
2018-09-21T16:05:20.279Z,25.19
2018-09-21T16:07:54.721Z,24.94
2018-09-21T16:10:29.120Z,25.00
2018-09-21T16:13:03.587Z,24.88
2018-09-21T16:15:38.327Z,24.89
2018-09-21T16:18:12.831Z,24.92
2018-09-21T16:20:47.628Z,24.89
2018-09-21T16:23:22.056Z,24.90
2018-09-21T16:25:56.569Z,24.85
2018-09-21T16:28:31.397Z,24.80
2018-09-21T16:31:05.976Z,24.81
2018-09-21T16:33:40.819Z,24.73
2018-09-21T16:36:16.926Z,24.65
2018-09-21T16:38:51.748Z,24.57
2018-09-21T16:41:26.407Z,24.62
2018-09-21T16:44:00.768Z,24.62
2018-09-21T16:46:35.823Z,24.44
2018-09-21T16:49:10.708Z,24.39
2018-09-21T16:51:45.849Z,24.39
2018-09-21T16:54:20.424Z,24.39
2018-09-21T16:56:55.093Z,24.30
2018-09-21T16:59:30.256Z,24.35
2018-09-21T17:02:04.858Z,24.29
2018-09-21T17:04:39.502Z,24.33
2018-09-21T17:07:16.949Z,24.26
2018-09-21T17:09:51.573Z,24.17
2018-09-21T17:12:26.314Z,24.11
2018-09-21T17:15:01.262Z,24.01
2018-09-21T17:17:36.095Z,23.99
2018-09-21T17:20:10.996Z,23.93
2018-09-21T17:22:45.646Z,23.87
2018-09-21T17:25:20.365Z,23.69
2018-09-21T17:27:55.016Z,23.75
2018-09-21T17:30:30.289Z,23.74
2018-09-21T17:33:05.731Z,23.56
2018-09-21T17:35:40.232Z,23.38
2018-09-21T17:38:14.749Z,23.21
2018-09-21T17:40:49.435Z,23.02
2018-09-21T17:43:23.901Z,22.89
2018-09-21T17:45:58.567Z,22.81
2018-09-21T17:48:33.244Z,22.83
2018-09-21T17:51:08.377Z,22.76
2018-09-21T17:53:43.253Z,22.75
2018-09-21T17:56:17.771Z,22.64
2018-09-21T17:58:52.903Z,22.61
2018-09-21T18:01:28.005Z,22.57
2018-09-21T18:04:03.088Z,22.57
2018-09-21T18:06:37.600Z,22.56
2018-09-21T18:09:12.177Z,22.37
2018-09-21T18:11:46.880Z,22.28
2018-09-21T18:14:21.660Z,22.24
2018-09-21T18:16:56.076Z,22.28
2018-09-21T18:19:30.816Z,22.12
2018-09-21T18:22:05.162Z,22.04
2018-09-21T18:24:40.143Z,21.93
2018-09-21T18:27:14.709Z,21.82
2018-09-21T18:29:49.408Z,21.71
2018-09-21T18:32:23.807Z,21.67
2018-09-21T18:34:58.532Z,21.56
2018-09-21T18:37:33.409Z,21.59
2018-09-21T18:40:09.016Z,21.60
2018-09-21T18:42:43.857Z,21.59
2018-09-21T18:45:18.669Z,21.54
2018-09-21T18:47:53.240Z,21.47
2018-09-21T18:50:27.876Z,21.53
2018-09-21T18:53:02.894Z,21.48
2018-09-21T18:55:38.269Z,21.50
2018-09-21T18:58:12.795Z,21.53
2018-09-21T19:00:47.766Z,21.51
2018-09-21T19:03:24.295Z,21.50
2018-09-21T19:05:58.752Z,21.30
2018-09-21T19:08:33.231Z,21.19
2018-09-21T19:11:08.067Z,21.09
2018-09-21T19:13:42.662Z,20.70
2018-09-21T19:16:16.983Z,19.98
2018-09-21T19:18:51.929Z,19.48
2018-09-21T19:21:28.338Z,19.14
2018-09-21T19:24:03.105Z,18.74
2018-09-21T19:26:37.510Z,18.19
2018-09-21T19:29:12.407Z,18.06
2018-09-21T19:31:47.188Z,17.68
2018-09-21T19:34:21.624Z,17.40
2018-09-21T19:37:00.737Z,17.34
2018-09-21T19:39:39.853Z,17.22
2018-09-21T19:42:16.723Z,16.94
2018-09-21T19:44:51.636Z,16.50
2018-09-21T19:47:28.715Z,15.98
2018-09-21T19:50:03.862Z,15.40
2018-09-21T19:52:38.332Z,15.14
2018-09-21T19:55:12.660Z,14.86
2018-09-21T19:57:47.135Z,14.77
2018-09-21T20:00:21.959Z,14.59
2018-09-21T20:02:56.487Z,14.32
2018-09-21T20:05:36.848Z,14.23
2018-09-21T20:08:11.472Z,14.29
2018-09-21T20:10:52.656Z,14.20
2018-09-21T20:13:26.931Z,14.12
2018-09-21T20:16:01.269Z,13.89
2018-09-21T20:18:35.713Z,13.86
2018-09-21T20:21:14.977Z,13.77
2018-09-21T20:23:49.606Z,13.80
2018-09-21T20:26:24.669Z,13.75
2018-09-21T20:28:59.673Z,13.80
2018-09-21T20:31:43.724Z,13.78
2018-09-21T20:34:23.441Z,13.74
2018-09-21T20:36:58.595Z,13.74
2018-09-21T20:39:33.156Z,13.74
2018-09-21T20:42:08.247Z,13.57
2018-09-21T20:44:49.278Z,13.46
2018-09-21T20:47:24.178Z,13.26
2018-09-21T20:49:58.795Z,13.26
2018-09-21T20:52:33.655Z,13.44
2018-09-21T20:55:08.068Z,13.49
2018-09-21T20:57:42.712Z,13.46
2018-09-21T21:00:17.772Z,13.53
2018-09-21T21:02:52.424Z,13.63
2018-09-21T21:05:27.149Z,13.70
2018-09-21T21:08:02.701Z,13.71
2018-09-21T21:10:37.140Z,13.73
2018-09-21T21:13:11.513Z,13.51
2018-09-21T21:15:46.911Z,13.38
2018-09-21T21:18:21.667Z,13.30
2018-09-21T21:20:56.108Z,13.22
2018-09-21T21:23:31.560Z,13.31
2018-09-21T21:26:06.400Z,13.33
2018-09-21T21:28:41.191Z,13.29
2018-09-21T21:31:16.027Z,13.22
2018-09-21T21:33:50.949Z,13.28
2018-09-21T21:36:25.574Z,13.30
2018-09-21T21:38:59.976Z,13.31
2018-09-21T21:41:34.423Z,13.40
2018-09-21T21:44:08.874Z,13.48
2018-09-21T21:46:43.657Z,13.45
2018-09-21T21:49:18.015Z,13.36
2018-09-21T21:51:52.295Z,13.26
2018-09-21T21:54:26.786Z,13.23
2018-09-21T21:57:01.712Z,13.42
2018-09-21T21:59:36.198Z,13.35
2018-09-21T22:02:12.067Z,13.39
2018-09-21T22:04:46.350Z,13.63
2018-09-21T22:07:20.801Z,13.54
2018-09-21T22:09:55.396Z,13.65
2018-09-21T22:12:35.293Z,13.81
2018-09-21T22:15:18.479Z,13.88
2018-09-21T22:17:55.021Z,13.77
2018-09-21T22:20:29.888Z,13.78
2018-09-21T22:23:05.015Z,13.83
2018-09-21T22:25:39.397Z,13.80
2018-09-21T22:28:13.956Z,13.82
2018-09-21T22:30:48.278Z,13.85
2018-09-21T22:33:22.960Z,13.88
2018-09-21T22:35:57.324Z,13.83
2018-09-21T22:38:32.634Z,13.87
2018-09-21T22:41:07.840Z,13.86
2018-09-21T22:43:42.211Z,13.87
2018-09-21T22:46:17.122Z,13.85
2018-09-21T22:48:52.604Z,13.88
2018-09-21T22:51:27.027Z,13.79
2018-09-21T22:54:01.820Z,13.71
2018-09-21T22:56:36.754Z,13.79
2018-09-21T22:59:11.397Z,13.86
2018-09-21T23:01:46.708Z,13.92
2018-09-21T23:04:21.143Z,13.94
2018-09-21T23:06:56.109Z,13.90
2018-09-21T23:09:30.408Z,13.91
2018-09-21T23:12:05.139Z,13.87
2018-09-21T23:14:40.755Z,13.60
2018-09-21T23:17:15.560Z,13.62
2018-09-21T23:19:50.176Z,13.58
2018-09-21T23:22:24.752Z,13.58
2018-09-21T23:24:59.545Z,13.59
2018-09-21T23:27:34.275Z,13.66
2018-09-21T23:30:09.115Z,13.65
2018-09-21T23:32:43.556Z,13.69
2018-09-21T23:35:18.143Z,13.75
2018-09-21T23:37:52.613Z,13.81
2018-09-21T23:40:27.016Z,13.66
2018-09-21T23:43:01.427Z,13.67
2018-09-21T23:45:35.827Z,13.73
2018-09-21T23:48:10.323Z,13.75
2018-09-21T23:50:44.838Z,13.80
2018-09-21T23:53:19.344Z,13.82
2018-09-21T23:55:53.800Z,13.81
2018-09-21T23:58:28.200Z,13.91
